sensor_id;sensor_type;location;lat;lon;timestamp;P1;durP1;ratioP1;P2;durP2;ratioP2
33858;SDS011;20156;47.486;12.074;2023-06-22T00:01:10;23.40;;;17.42;;
33858;SDS011;20156;47.486;12.074;2023-06-22T00:03:35;18.00;;;15.90;;
33858;SDS011;20156;47.486;12.074;2023-06-22T00:06:01;16.48;;;13.27;;
33858;SDS011;20156;47.486;12.074;2023-06-22T00:08:26;17.10;;;12.35;;
33858;SDS011;20156;47.486;12.074;2023-06-22T00:10:51;18.33;;;14.45;;
33858;SDS011;20156;47.486;12.074;2023-06-22T00:13:16;17.95;;;15.48;;
33858;SDS011;20156;47.486;12.074;2023-06-22T00:15:42;15.73;;;14.00;;
33858;SDS011;20156;47.486;12.074;2023-06-22T00:18:08;14.07;;;11.50;;
33858;SDS011;20156;47.486;12.074;2023-06-22T00:20:34;14.88;;;12.93;;
33858;SDS011;20156;47.486;12.074;2023-06-22T00:23:02;17.30;;;13.50;;
33858;SDS011;20156;47.486;12.074;2023-06-22T00:25:31;15.40;;;13.80;;
33858;SDS011;20156;47.486;12.074;2023-06-22T00:27:56;12.48;;;9.95;;
33858;SDS011;20156;47.486;12.074;2023-06-22T00:30:21;16.58;;;12.20;;
33858;SDS011;20156;47.486;12.074;2023-06-22T00:32:47;19.98;;;13.68;;
33858;SDS011;20156;47.486;12.074;2023-06-22T00:35:12;13.65;;;11.10;;
33858;SDS011;20156;47.486;12.074;2023-06-22T00:37:38;14.20;;;11.45;;
33858;SDS011;20156;47.486;12.074;2023-06-22T00:40:06;14.43;;;12.95;;
33858;SDS011;20156;47.486;12.074;2023-06-22T00:42:32;17.75;;;12.93;;
33858;SDS011;20156;47.486;12.074;2023-06-22T00:44:58;16.33;;;12.15;;
33858;SDS011;20156;47.486;12.074;2023-06-22T00:47:23;19.75;;;14.20;;
33858;SDS011;20156;47.486;12.074;2023-06-22T00:49:49;16.27;;;14.10;;
33858;SDS011;20156;47.486;12.074;2023-06-22T00:52:16;15.45;;;12.20;;
33858;SDS011;20156;47.486;12.074;2023-06-22T00:54:45;13.73;;;10.93;;
33858;SDS011;20156;47.486;12.074;2023-06-22T00:57:11;18.45;;;13.73;;
33858;SDS011;20156;47.486;12.074;2023-06-22T00:59:37;11.25;;;9.70;;
33858;SDS011;20156;47.486;12.074;2023-06-22T01:02:04;15.43;;;12.55;;
33858;SDS011;20156;47.486;12.074;2023-06-22T01:04:36;19.65;;;14.32;;
33858;SDS011;20156;47.486;12.074;2023-06-22T01:07:21;14.00;;;10.93;;
33858;SDS011;20156;47.486;12.074;2023-06-22T01:12:20;13.15;;;10.20;;
33858;SDS011;20156;47.486;12.074;2023-06-22T01:14:56;15.05;;;13.45;;
33858;SDS011;20156;47.486;12.074;2023-06-22T01:17:23;16.67;;;13.27;;
33858;SDS011;20156;47.486;12.074;2023-06-22T01:19:53;15.10;;;13.35;;
33858;SDS011;20156;47.486;12.074;2023-06-22T01:22:23;14.10;;;10.95;;
33858;SDS011;20156;47.486;12.074;2023-06-22T01:27:36;11.55;;;9.35;;
33858;SDS011;20156;47.486;12.074;2023-06-22T01:30:06;11.27;;;9.98;;
33858;SDS011;20156;47.486;12.074;2023-06-22T01:32:35;14.68;;;11.02;;
33858;SDS011;20156;47.486;12.074;2023-06-22T01:35:02;11.90;;;10.70;;
33858;SDS011;20156;47.486;12.074;2023-06-22T01:37:28;11.38;;;9.55;;
33858;SDS011;20156;47.486;12.074;2023-06-22T01:39:54;13.05;;;10.95;;
33858;SDS011;20156;47.486;12.074;2023-06-22T01:42:20;15.05;;;11.82;;
33858;SDS011;20156;47.486;12.074;2023-06-22T01:44:46;16.70;;;14.23;;
33858;SDS011;20156;47.486;12.074;2023-06-22T01:47:11;12.77;;;11.48;;
33858;SDS011;20156;47.486;12.074;2023-06-22T01:49:39;12.30;;;10.80;;
33858;SDS011;20156;47.486;12.074;2023-06-22T01:52:04;15.65;;;13.40;;
33858;SDS011;20156;47.486;12.074;2023-06-22T01:54:30;19.67;;;14.27;;
33858;SDS011;20156;47.486;12.074;2023-06-22T01:56:55;13.20;;;11.98;;
33858;SDS011;20156;47.486;12.074;2023-06-22T01:59:24;16.27;;;12.48;;
33858;SDS011;20156;47.486;12.074;2023-06-22T02:02:01;15.30;;;13.52;;
33858;SDS011;20156;47.486;12.074;2023-06-22T02:04:27;14.88;;;11.30;;
33858;SDS011;20156;47.486;12.074;2023-06-22T02:06:56;12.23;;;10.98;;
33858;SDS011;20156;47.486;12.074;2023-06-22T02:09:23;12.43;;;11.02;;
33858;SDS011;20156;47.486;12.074;2023-06-22T02:11:50;10.63;;;9.55;;
33858;SDS011;20156;47.486;12.074;2023-06-22T02:14:19;11.95;;;9.55;;
33858;SDS011;20156;47.486;12.074;2023-06-22T02:16:45;13.43;;;9.85;;
33858;SDS011;20156;47.486;12.074;2023-06-22T02:19:11;9.95;;;8.95;;
33858;SDS011;20156;47.486;12.074;2023-06-22T02:21:36;14.30;;;9.75;;
33858;SDS011;20156;47.486;12.074;2023-06-22T02:24:01;9.65;;;7.80;;
33858;SDS011;20156;47.486;12.074;2023-06-22T02:26:27;12.80;;;9.32;;
33858;SDS011;20156;47.486;12.074;2023-06-22T02:28:52;13.40;;;10.38;;
33858;SDS011;20156;47.486;12.074;2023-06-22T02:31:18;10.23;;;9.05;;
33858;SDS011;20156;47.486;12.074;2023-06-22T02:33:43;12.77;;;10.02;;
33858;SDS011;20156;47.486;12.074;2023-06-22T02:36:09;15.43;;;11.30;;
33858;SDS011;20156;47.486;12.074;2023-06-22T02:38:38;15.30;;;10.82;;
33858;SDS011;20156;47.486;12.074;2023-06-22T02:41:04;16.27;;;10.82;;
33858;SDS011;20156;47.486;12.074;2023-06-22T02:43:29;11.57;;;9.55;;
33858;SDS011;20156;47.486;12.074;2023-06-22T02:45:54;17.65;;;12.02;;
33858;SDS011;20156;47.486;12.074;2023-06-22T02:48:20;12.30;;;8.38;;
33858;SDS011;20156;47.486;12.074;2023-06-22T02:50:45;14.73;;;11.65;;
33858;SDS011;20156;47.486;12.074;2023-06-22T02:53:10;17.42;;;13.45;;
33858;SDS011;20156;47.486;12.074;2023-06-22T02:55:36;20.25;;;13.07;;
33858;SDS011;20156;47.486;12.074;2023-06-22T02:58:01;19.13;;;13.75;;
33858;SDS011;20156;47.486;12.074;2023-06-22T03:00:29;16.98;;;12.00;;
33858;SDS011;20156;47.486;12.074;2023-06-22T03:02:55;17.63;;;12.57;;
33858;SDS011;20156;47.486;12.074;2023-06-22T03:05:21;14.15;;;11.05;;
33858;SDS011;20156;47.486;12.074;2023-06-22T03:07:46;16.00;;;10.48;;
33858;SDS011;20156;47.486;12.074;2023-06-22T03:10:12;14.73;;;10.50;;
33858;SDS011;20156;47.486;12.074;2023-06-22T03:12:37;21.05;;;12.82;;
33858;SDS011;20156;47.486;12.074;2023-06-22T03:15:04;18.27;;;12.38;;
33858;SDS011;20156;47.486;12.074;2023-06-22T03:17:29;15.63;;;10.82;;
33858;SDS011;20156;47.486;12.074;2023-06-22T03:19:55;12.65;;;9.43;;
33858;SDS011;20156;47.486;12.074;2023-06-22T03:22:20;16.98;;;10.70;;
33858;SDS011;20156;47.486;12.074;2023-06-22T03:24:45;14.40;;;9.65;;
33858;SDS011;20156;47.486;12.074;2023-06-22T03:27:10;17.63;;;11.75;;
33858;SDS011;20156;47.486;12.074;2023-06-22T03:29:36;15.00;;;11.25;;
33858;SDS011;20156;47.486;12.074;2023-06-22T03:32:01;18.17;;;12.38;;
33858;SDS011;20156;47.486;12.074;2023-06-22T03:34:27;17.55;;;12.70;;
33858;SDS011;20156;47.486;12.074;2023-06-22T03:36:52;21.17;;;13.05;;
33858;SDS011;20156;47.486;12.074;2023-06-22T03:39:17;18.00;;;13.30;;
33858;SDS011;20156;47.486;12.074;2023-06-22T03:41:42;16.98;;;12.95;;
33858;SDS011;20156;47.486;12.074;2023-06-22T03:44:08;14.52;;;12.52;;
33858;SDS011;20156;47.486;12.074;2023-06-22T03:46:37;17.10;;;14.70;;
33858;SDS011;20156;47.486;12.074;2023-06-22T03:49:02;15.82;;;13.15;;
33858;SDS011;20156;47.486;12.074;2023-06-22T03:51:28;15.23;;;12.00;;
33858;SDS011;20156;47.486;12.074;2023-06-22T03:53:53;13.35;;;11.38;;
33858;SDS011;20156;47.486;12.074;2023-06-22T03:56:18;16.27;;;12.23;;
33858;SDS011;20156;47.486;12.074;2023-06-22T03:58:45;14.40;;;10.85;;
33858;SDS011;20156;47.486;12.074;2023-06-22T04:01:10;14.27;;;11.13;;
33858;SDS011;20156;47.486;12.074;2023-06-22T04:03:36;15.82;;;11.65;;
33858;SDS011;20156;47.486;12.074;2023-06-22T04:06:02;14.57;;;12.15;;
33858;SDS011;20156;47.486;12.074;2023-06-22T04:08:27;16.60;;;11.50;;
33858;SDS011;20156;47.486;12.074;2023-06-22T04:10:52;16.30;;;11.93;;
33858;SDS011;20156;47.486;12.074;2023-06-22T04:13:17;13.38;;;10.95;;
33858;SDS011;20156;47.486;12.074;2023-06-22T04:15:42;13.48;;;10.40;;
33858;SDS011;20156;47.486;12.074;2023-06-22T04:18:08;10.55;;;9.27;;
33858;SDS011;20156;47.486;12.074;2023-06-22T04:20:33;14.10;;;10.20;;
33858;SDS011;20156;47.486;12.074;2023-06-22T04:22:58;15.82;;;10.73;;
33858;SDS011;20156;47.486;12.074;2023-06-22T04:25:24;13.85;;;10.43;;
33858;SDS011;20156;47.486;12.074;2023-06-22T04:27:49;14.20;;;10.95;;
33858;SDS011;20156;47.486;12.074;2023-06-22T04:30:14;14.93;;;10.65;;
33858;SDS011;20156;47.486;12.074;2023-06-22T04:32:41;12.40;;;9.85;;
33858;SDS011;20156;47.486;12.074;2023-06-22T04:35:06;13.82;;;9.95;;
33858;SDS011;20156;47.486;12.074;2023-06-22T04:37:32;11.50;;;9.05;;
33858;SDS011;20156;47.486;12.074;2023-06-22T04:39:57;12.57;;;9.43;;
33858;SDS011;20156;47.486;12.074;2023-06-22T04:42:24;12.23;;;9.52;;
33858;SDS011;20156;47.486;12.074;2023-06-22T04:44:50;14.18;;;8.40;;
33858;SDS011;20156;47.486;12.074;2023-06-22T04:47:15;14.60;;;8.77;;
33858;SDS011;20156;47.486;12.074;2023-06-22T04:49:40;11.45;;;9.35;;
33858;SDS011;20156;47.486;12.074;2023-06-22T04:52:08;13.25;;;9.15;;
33858;SDS011;20156;47.486;12.074;2023-06-22T04:54:34;16.35;;;9.50;;
33858;SDS011;20156;47.486;12.074;2023-06-22T04:57:00;13.93;;;9.10;;
33858;SDS011;20156;47.486;12.074;2023-06-22T04:59:26;11.35;;;8.30;;
33858;SDS011;20156;47.486;12.074;2023-06-22T05:01:53;14.25;;;8.98;;
33858;SDS011;20156;47.486;12.074;2023-06-22T05:04:19;10.73;;;8.00;;
33858;SDS011;20156;47.486;12.074;2023-06-22T05:06:44;13.18;;;8.23;;
33858;SDS011;20156;47.486;12.074;2023-06-22T05:09:10;10.25;;;8.32;;
33858;SDS011;20156;47.486;12.074;2023-06-22T05:11:37;11.25;;;7.53;;
33858;SDS011;20156;47.486;12.074;2023-06-22T05:14:02;14.50;;;8.73;;
33858;SDS011;20156;47.486;12.074;2023-06-22T05:16:27;14.55;;;8.52;;
33858;SDS011;20156;47.486;12.074;2023-06-22T05:18:53;12.38;;;7.63;;
33858;SDS011;20156;47.486;12.074;2023-06-22T05:21:22;12.57;;;7.55;;
33858;SDS011;20156;47.486;12.074;2023-06-22T05:23:48;13.95;;;8.63;;
33858;SDS011;20156;47.486;12.074;2023-06-22T05:26:14;11.73;;;7.78;;
33858;SDS011;20156;47.486;12.074;2023-06-22T05:28:39;10.02;;;8.23;;
33858;SDS011;20156;47.486;12.074;2023-06-22T05:31:04;10.93;;;8.13;;
33858;SDS011;20156;47.486;12.074;2023-06-22T05:33:30;10.73;;;7.35;;
33858;SDS011;20156;47.486;12.074;2023-06-22T05:35:55;14.30;;;7.68;;
33858;SDS011;20156;47.486;12.074;2023-06-22T05:38:20;13.55;;;7.63;;
33858;SDS011;20156;47.486;12.074;2023-06-22T05:40:45;13.77;;;8.60;;
33858;SDS011;20156;47.486;12.074;2023-06-22T05:43:11;11.25;;;7.82;;
33858;SDS011;20156;47.486;12.074;2023-06-22T05:45:36;13.88;;;7.90;;
33858;SDS011;20156;47.486;12.074;2023-06-22T05:48:01;12.40;;;8.07;;
33858;SDS011;20156;47.486;12.074;2023-06-22T05:50:26;14.52;;;8.75;;
33858;SDS011;20156;47.486;12.074;2023-06-22T05:52:52;11.10;;;7.68;;
33858;SDS011;20156;47.486;12.074;2023-06-22T05:55:17;9.23;;;7.82;;
33858;SDS011;20156;47.486;12.074;2023-06-22T05:57:43;19.33;;;8.75;;
33858;SDS011;20156;47.486;12.074;2023-06-22T06:00:09;12.85;;;9.27;;
33858;SDS011;20156;47.486;12.074;2023-06-22T06:02:36;9.48;;;7.28;;
33858;SDS011;20156;47.486;12.074;2023-06-22T06:05:01;11.95;;;7.88;;
33858;SDS011;20156;47.486;12.074;2023-06-22T06:07:27;13.40;;;9.43;;
33858;SDS011;20156;47.486;12.074;2023-06-22T06:09:52;12.18;;;8.43;;
33858;SDS011;20156;47.486;12.074;2023-06-22T06:12:18;13.68;;;8.45;;
33858;SDS011;20156;47.486;12.074;2023-06-22T06:14:43;18.80;;;10.48;;
33858;SDS011;20156;47.486;12.074;2023-06-22T06:17:08;16.88;;;9.63;;
33858;SDS011;20156;47.486;12.074;2023-06-22T06:19:33;12.93;;;8.98;;
33858;SDS011;20156;47.486;12.074;2023-06-22T06:21:59;12.85;;;9.05;;
33858;SDS011;20156;47.486;12.074;2023-06-22T06:24:26;12.35;;;9.55;;
33858;SDS011;20156;47.486;12.074;2023-06-22T06:26:51;14.90;;;9.88;;
33858;SDS011;20156;47.486;12.074;2023-06-22T06:29:16;8.95;;;7.65;;
33858;SDS011;20156;47.486;12.074;2023-06-22T06:31:42;16.33;;;8.52;;
33858;SDS011;20156;47.486;12.074;2023-06-22T06:34:07;11.60;;;7.93;;
33858;SDS011;20156;47.486;12.074;2023-06-22T06:36:32;13.77;;;9.07;;
33858;SDS011;20156;47.486;12.074;2023-06-22T06:38:57;15.63;;;9.48;;
33858;SDS011;20156;47.486;12.074;2023-06-22T06:41:23;19.20;;;10.73;;
33858;SDS011;20156;47.486;12.074;2023-06-22T06:43:48;19.52;;;10.63;;
33858;SDS011;20156;47.486;12.074;2023-06-22T06:46:14;16.30;;;9.35;;
33858;SDS011;20156;47.486;12.074;2023-06-22T06:48:39;13.75;;;9.60;;
33858;SDS011;20156;47.486;12.074;2023-06-22T06:51:05;12.82;;;9.30;;
33858;SDS011;20156;47.486;12.074;2023-06-22T06:53:30;13.95;;;9.48;;
33858;SDS011;20156;47.486;12.074;2023-06-22T06:55:56;14.88;;;10.40;;
33858;SDS011;20156;47.486;12.074;2023-06-22T06:58:21;16.63;;;10.07;;
33858;SDS011;20156;47.486;12.074;2023-06-22T07:00:48;15.73;;;9.90;;
33858;SDS011;20156;47.486;12.074;2023-06-22T07:03:13;17.58;;;8.68;;
33858;SDS011;20156;47.486;12.074;2023-06-22T07:05:38;16.38;;;10.25;;
33858;SDS011;20156;47.486;12.074;2023-06-22T07:08:03;17.90;;;10.23;;
33858;SDS011;20156;47.486;12.074;2023-06-22T07:10:29;15.52;;;10.52;;
33858;SDS011;20156;47.486;12.074;2023-06-22T07:12:54;21.20;;;11.23;;
33858;SDS011;20156;47.486;12.074;2023-06-22T07:15:19;13.88;;;9.82;;
33858;SDS011;20156;47.486;12.074;2023-06-22T07:17:44;15.90;;;10.27;;
33858;SDS011;20156;47.486;12.074;2023-06-22T07:20:10;17.80;;;10.85;;
33858;SDS011;20156;47.486;12.074;2023-06-22T07:22:37;16.98;;;10.15;;
33858;SDS011;20156;47.486;12.074;2023-06-22T07:25:03;15.05;;;10.05;;
33858;SDS011;20156;47.486;12.074;2023-06-22T07:27:38;15.68;;;10.52;;
33858;SDS011;20156;47.486;12.074;2023-06-22T07:30:05;18.30;;;10.63;;
33858;SDS011;20156;47.486;12.074;2023-06-22T07:32:30;15.55;;;10.10;;
33858;SDS011;20156;47.486;12.074;2023-06-22T07:34:55;16.38;;;9.77;;
33858;SDS011;20156;47.486;12.074;2023-06-22T07:37:21;22.00;;;10.38;;
33858;SDS011;20156;47.486;12.074;2023-06-22T07:39:46;14.70;;;10.02;;
33858;SDS011;20156;47.486;12.074;2023-06-22T07:42:11;17.40;;;10.90;;
33858;SDS011;20156;47.486;12.074;2023-06-22T07:44:37;18.70;;;11.80;;
33858;SDS011;20156;47.486;12.074;2023-06-22T07:47:02;18.63;;;12.07;;
33858;SDS011;20156;47.486;12.074;2023-06-22T07:49:27;18.02;;;11.40;;
33858;SDS011;20156;47.486;12.074;2023-06-22T07:51:53;19.73;;;10.50;;
33858;SDS011;20156;47.486;12.074;2023-06-22T07:54:18;14.02;;;10.48;;
33858;SDS011;20156;47.486;12.074;2023-06-22T07:56:43;19.88;;;12.07;;
33858;SDS011;20156;47.486;12.074;2023-06-22T07:59:09;16.40;;;11.02;;
33858;SDS011;20156;47.486;12.074;2023-06-22T08:01:34;17.40;;;10.73;;
33858;SDS011;20156;47.486;12.074;2023-06-22T08:03:59;14.38;;;9.77;;
33858;SDS011;20156;47.486;12.074;2023-06-22T08:06:24;19.27;;;10.75;;
33858;SDS011;20156;47.486;12.074;2023-06-22T08:08:50;20.20;;;10.32;;
33858;SDS011;20156;47.486;12.074;2023-06-22T08:11:17;18.80;;;10.65;;
33858;SDS011;20156;47.486;12.074;2023-06-22T08:13:43;17.85;;;9.82;;
33858;SDS011;20156;47.486;12.074;2023-06-22T08:16:08;18.73;;;10.80;;
33858;SDS011;20156;47.486;12.074;2023-06-22T08:18:33;19.17;;;10.88;;
33858;SDS011;20156;47.486;12.074;2023-06-22T08:20:58;19.77;;;10.23;;
33858;SDS011;20156;47.486;12.074;2023-06-22T08:23:24;17.20;;;11.25;;
33858;SDS011;20156;47.486;12.074;2023-06-22T08:25:49;21.27;;;11.10;;
33858;SDS011;20156;47.486;12.074;2023-06-22T08:28:15;20.88;;;11.70;;
33858;SDS011;20156;47.486;12.074;2023-06-22T08:30:40;19.70;;;11.52;;
33858;SDS011;20156;47.486;12.074;2023-06-22T08:33:06;16.80;;;10.82;;
33858;SDS011;20156;47.486;12.074;2023-06-22T08:35:31;14.57;;;10.10;;
33858;SDS011;20156;47.486;12.074;2023-06-22T08:37:56;19.38;;;11.32;;
33858;SDS011;20156;47.486;12.074;2023-06-22T08:40:21;21.95;;;12.68;;
33858;SDS011;20156;47.486;12.074;2023-06-22T08:42:47;16.65;;;11.02;;
33858;SDS011;20156;47.486;12.074;2023-06-22T08:45:13;17.52;;;10.50;;
33858;SDS011;20156;47.486;12.074;2023-06-22T08:47:38;21.73;;;11.18;;
33858;SDS011;20156;47.486;12.074;2023-06-22T08:50:04;21.67;;;10.57;;
33858;SDS011;20156;47.486;12.074;2023-06-22T08:52:30;21.02;;;11.82;;
33858;SDS011;20156;47.486;12.074;2023-06-22T08:54:56;17.98;;;10.55;;
33858;SDS011;20156;47.486;12.074;2023-06-22T08:57:21;20.42;;;11.20;;
33858;SDS011;20156;47.486;12.074;2023-06-22T08:59:46;20.15;;;11.25;;
33858;SDS011;20156;47.486;12.074;2023-06-22T09:02:11;16.15;;;9.57;;
33858;SDS011;20156;47.486;12.074;2023-06-22T09:04:37;16.95;;;10.80;;
33858;SDS011;20156;47.486;12.074;2023-06-22T09:07:02;19.65;;;11.60;;
33858;SDS011;20156;47.486;12.074;2023-06-22T09:09:27;18.38;;;10.27;;
33858;SDS011;20156;47.486;12.074;2023-06-22T09:11:53;13.65;;;10.18;;
33858;SDS011;20156;47.486;12.074;2023-06-22T09:14:18;16.00;;;9.88;;
33858;SDS011;20156;47.486;12.074;2023-06-22T09:16:43;16.92;;;10.30;;
33858;SDS011;20156;47.486;12.074;2023-06-22T09:19:09;14.48;;;9.02;;
33858;SDS011;20156;47.486;12.074;2023-06-22T09:21:34;17.63;;;9.52;;
33858;SDS011;20156;47.486;12.074;2023-06-22T09:23:59;18.65;;;9.77;;
33858;SDS011;20156;47.486;12.074;2023-06-22T09:26:25;17.75;;;10.02;;
33858;SDS011;20156;47.486;12.074;2023-06-22T09:28:50;19.48;;;10.00;;
33858;SDS011;20156;47.486;12.074;2023-06-22T09:31:15;16.73;;;9.52;;
33858;SDS011;20156;47.486;12.074;2023-06-22T09:33:42;15.63;;;10.23;;
33858;SDS011;20156;47.486;12.074;2023-06-22T09:36:07;15.80;;;9.52;;
33858;SDS011;20156;47.486;12.074;2023-06-22T09:38:38;16.77;;;10.40;;
33858;SDS011;20156;47.486;12.074;2023-06-22T09:41:04;15.40;;;9.98;;
33858;SDS011;20156;47.486;12.074;2023-06-22T09:43:31;17.13;;;9.77;;
33858;SDS011;20156;47.486;12.074;2023-06-22T09:45:56;16.88;;;9.68;;
33858;SDS011;20156;47.486;12.074;2023-06-22T09:48:22;26.77;;;10.00;;
33858;SDS011;20156;47.486;12.074;2023-06-22T09:50:47;14.85;;;10.07;;
33858;SDS011;20156;47.486;12.074;2023-06-22T09:53:12;17.05;;;9.70;;
33858;SDS011;20156;47.486;12.074;2023-06-22T09:55:38;19.67;;;10.20;;
33858;SDS011;20156;47.486;12.074;2023-06-22T09:58:03;14.35;;;9.15;;
33858;SDS011;20156;47.486;12.074;2023-06-22T10:00:28;16.67;;;9.20;;
33858;SDS011;20156;47.486;12.074;2023-06-22T10:02:53;16.13;;;8.98;;
33858;SDS011;20156;47.486;12.074;2023-06-22T10:05:20;15.85;;;9.07;;
33858;SDS011;20156;47.486;12.074;2023-06-22T10:07:45;13.57;;;9.32;;
33858;SDS011;20156;47.486;12.074;2023-06-22T10:10:11;15.68;;;8.55;;
33858;SDS011;20156;47.486;12.074;2023-06-22T10:12:40;9.90;;;8.10;;
33858;SDS011;20156;47.486;12.074;2023-06-22T10:15:06;20.58;;;9.52;;
33858;SDS011;20156;47.486;12.074;2023-06-22T10:17:31;16.00;;;9.13;;
33858;SDS011;20156;47.486;12.074;2023-06-22T10:19:57;14.67;;;9.30;;
33858;SDS011;20156;47.486;12.074;2023-06-22T10:22:23;22.05;;;9.75;;
33858;SDS011;20156;47.486;12.074;2023-06-22T10:24:49;17.73;;;9.65;;
33858;SDS011;20156;47.486;12.074;2023-06-22T10:27:14;15.50;;;9.32;;
33858;SDS011;20156;47.486;12.074;2023-06-22T10:29:41;15.35;;;9.20;;
33858;SDS011;20156;47.486;12.074;2023-06-22T10:32:06;11.95;;;8.88;;
33858;SDS011;20156;47.486;12.074;2023-06-22T10:34:32;17.73;;;9.82;;
33858;SDS011;20156;47.486;12.074;2023-06-22T10:36:57;19.95;;;10.30;;
33858;SDS011;20156;47.486;12.074;2023-06-22T10:39:22;19.60;;;10.60;;
33858;SDS011;20156;47.486;12.074;2023-06-22T10:41:47;20.58;;;11.23;;
33858;SDS011;20156;47.486;12.074;2023-06-22T10:44:13;18.30;;;10.90;;
33858;SDS011;20156;47.486;12.074;2023-06-22T10:46:38;20.30;;;13.38;;
33858;SDS011;20156;47.486;12.074;2023-06-22T10:49:03;17.95;;;12.70;;
33858;SDS011;20156;47.486;12.074;2023-06-22T10:51:29;17.35;;;11.05;;
33858;SDS011;20156;47.486;12.074;2023-06-22T10:53:54;20.25;;;12.27;;
33858;SDS011;20156;47.486;12.074;2023-06-22T10:56:19;19.58;;;12.30;;
33858;SDS011;20156;47.486;12.074;2023-06-22T10:58:45;20.55;;;12.90;;
33858;SDS011;20156;47.486;12.074;2023-06-22T11:01:10;23.20;;;12.05;;
33858;SDS011;20156;47.486;12.074;2023-06-22T11:03:35;17.95;;;11.77;;
33858;SDS011;20156;47.486;12.074;2023-06-22T11:06:00;14.52;;;9.45;;
33858;SDS011;20156;47.486;12.074;2023-06-22T11:08:26;22.30;;;11.85;;
33858;SDS011;20156;47.486;12.074;2023-06-22T11:10:51;15.93;;;10.68;;
33858;SDS011;20156;47.486;12.074;2023-06-22T11:13:16;18.92;;;10.43;;
33858;SDS011;20156;47.486;12.074;2023-06-22T11:15:41;22.60;;;11.35;;
33858;SDS011;20156;47.486;12.074;2023-06-22T11:18:07;19.23;;;10.20;;
33858;SDS011;20156;47.486;12.074;2023-06-22T11:20:33;19.33;;;9.75;;
33858;SDS011;20156;47.486;12.074;2023-06-22T11:22:59;17.75;;;10.93;;
33858;SDS011;20156;47.486;12.074;2023-06-22T11:25:24;18.92;;;10.65;;
33858;SDS011;20156;47.486;12.074;2023-06-22T11:27:50;17.77;;;11.10;;
33858;SDS011;20156;47.486;12.074;2023-06-22T11:30:16;19.63;;;10.68;;
33858;SDS011;20156;47.486;12.074;2023-06-22T11:32:41;17.45;;;9.65;;
33858;SDS011;20156;47.486;12.074;2023-06-22T11:35:07;18.55;;;10.27;;
33858;SDS011;20156;47.486;12.074;2023-06-22T11:37:32;16.95;;;10.93;;
33858;SDS011;20156;47.486;12.074;2023-06-22T11:39:57;19.83;;;10.57;;
33858;SDS011;20156;47.486;12.074;2023-06-22T11:42:23;19.15;;;11.90;;
33858;SDS011;20156;47.486;12.074;2023-06-22T11:44:49;20.30;;;10.77;;
33858;SDS011;20156;47.486;12.074;2023-06-22T11:47:14;17.90;;;10.02;;
33858;SDS011;20156;47.486;12.074;2023-06-22T11:49:39;16.35;;;9.40;;
33858;SDS011;20156;47.486;12.074;2023-06-22T11:52:05;14.73;;;10.63;;
33858;SDS011;20156;47.486;12.074;2023-06-22T11:54:30;19.10;;;11.90;;
33858;SDS011;20156;47.486;12.074;2023-06-22T11:56:56;16.77;;;11.70;;
33858;SDS011;20156;47.486;12.074;2023-06-22T11:59:21;20.30;;;10.23;;
33858;SDS011;20156;47.486;12.074;2023-06-22T12:01:47;17.85;;;10.05;;
33858;SDS011;20156;47.486;12.074;2023-06-22T12:04:12;14.88;;;10.43;;
33858;SDS011;20156;47.486;12.074;2023-06-22T12:06:37;18.07;;;11.07;;
33858;SDS011;20156;47.486;12.074;2023-06-22T12:09:03;22.33;;;10.10;;
33858;SDS011;20156;47.486;12.074;2023-06-22T12:11:29;16.50;;;10.13;;
33858;SDS011;20156;47.486;12.074;2023-06-22T12:13:54;15.75;;;11.30;;
33858;SDS011;20156;47.486;12.074;2023-06-22T12:16:20;19.52;;;11.07;;
33858;SDS011;20156;47.486;12.074;2023-06-22T12:18:46;20.15;;;10.70;;
33858;SDS011;20156;47.486;12.074;2023-06-22T12:21:12;21.33;;;10.43;;
33858;SDS011;20156;47.486;12.074;2023-06-22T12:23:37;17.20;;;10.00;;
33858;SDS011;20156;47.486;12.074;2023-06-22T12:26:02;21.03;;;10.27;;
33858;SDS011;20156;47.486;12.074;2023-06-22T12:28:27;19.80;;;10.60;;
33858;SDS011;20156;47.486;12.074;2023-06-22T12:30:53;19.67;;;9.67;;
33858;SDS011;20156;47.486;12.074;2023-06-22T12:33:18;20.08;;;10.68;;
33858;SDS011;20156;47.486;12.074;2023-06-22T12:35:43;16.50;;;11.07;;
33858;SDS011;20156;47.486;12.074;2023-06-22T12:38:10;16.55;;;11.38;;
33858;SDS011;20156;47.486;12.074;2023-06-22T12:40:35;15.63;;;9.63;;
33858;SDS011;20156;47.486;12.074;2023-06-22T12:43:00;20.10;;;9.93;;
33858;SDS011;20156;47.486;12.074;2023-06-22T12:45:27;19.63;;;10.20;;
33858;SDS011;20156;47.486;12.074;2023-06-22T12:47:54;18.40;;;10.48;;
33858;SDS011;20156;47.486;12.074;2023-06-22T12:50:19;22.35;;;12.20;;
33858;SDS011;20156;47.486;12.074;2023-06-22T12:52:44;21.00;;;11.93;;
33858;SDS011;20156;47.486;12.074;2023-06-22T12:55:09;19.70;;;10.98;;
33858;SDS011;20156;47.486;12.074;2023-06-22T12:57:35;19.45;;;10.95;;
33858;SDS011;20156;47.486;12.074;2023-06-22T13:00:00;20.08;;;11.02;;
33858;SDS011;20156;47.486;12.074;2023-06-22T13:02:25;19.17;;;10.63;;
33858;SDS011;20156;47.486;12.074;2023-06-22T13:04:51;20.52;;;10.98;;
33858;SDS011;20156;47.486;12.074;2023-06-22T13:07:16;17.40;;;11.07;;
33858;SDS011;20156;47.486;12.074;2023-06-22T13:09:41;16.30;;;10.35;;
33858;SDS011;20156;47.486;12.074;2023-06-22T13:12:07;17.25;;;10.02;;
33858;SDS011;20156;47.486;12.074;2023-06-22T13:14:32;22.00;;;10.70;;
33858;SDS011;20156;47.486;12.074;2023-06-22T13:16:57;19.90;;;10.00;;
33858;SDS011;20156;47.486;12.074;2023-06-22T13:19:23;21.17;;;10.38;;
33858;SDS011;20156;47.486;12.074;2023-06-22T13:21:48;21.43;;;10.53;;
33858;SDS011;20156;47.486;12.074;2023-06-22T13:24:13;15.15;;;10.00;;
33858;SDS011;20156;47.486;12.074;2023-06-22T13:26:38;16.97;;;10.27;;
33858;SDS011;20156;47.486;12.074;2023-06-22T13:29:04;20.27;;;11.20;;
33858;SDS011;20156;47.486;12.074;2023-06-22T13:31:29;20.07;;;10.50;;
33858;SDS011;20156;47.486;12.074;2023-06-22T13:33:54;19.90;;;9.98;;
33858;SDS011;20156;47.486;12.074;2023-06-22T13:36:20;18.58;;;10.15;;
33858;SDS011;20156;47.486;12.074;2023-06-22T13:38:45;15.18;;;8.90;;
33858;SDS011;20156;47.486;12.074;2023-06-22T13:41:10;19.08;;;10.45;;
33858;SDS011;20156;47.486;12.074;2023-06-22T13:43:35;16.47;;;9.73;;
33858;SDS011;20156;47.486;12.074;2023-06-22T13:46:01;19.57;;;10.13;;
33858;SDS011;20156;47.486;12.074;2023-06-22T13:48:26;16.60;;;9.50;;
33858;SDS011;20156;47.486;12.074;2023-06-22T13:50:53;15.60;;;9.35;;
33858;SDS011;20156;47.486;12.074;2023-06-22T13:53:18;13.18;;;9.20;;
33858;SDS011;20156;47.486;12.074;2023-06-22T13:55:44;12.25;;;8.90;;
33858;SDS011;20156;47.486;12.074;2023-06-22T13:58:09;17.52;;;9.27;;
33858;SDS011;20156;47.486;12.074;2023-06-22T14:00:34;17.85;;;8.93;;
33858;SDS011;20156;47.486;12.074;2023-06-22T14:03:00;13.25;;;9.20;;
33858;SDS011;20156;47.486;12.074;2023-06-22T14:05:25;17.38;;;10.00;;
33858;SDS011;20156;47.486;12.074;2023-06-22T14:07:50;23.77;;;9.73;;
33858;SDS011;20156;47.486;12.074;2023-06-22T14:10:15;18.13;;;9.67;;